Michalis L — A8TZ8 — position and weather

sailwx.info

Track history (hours):
 
Tides and Currents Weather Stations Pressure Air Temp Water Temp Dewpoint Dewpoint Depression Visibility Wind Speed Wind Dir Waves Ship Positions

Michalis L

Last reported at 2018-Apr-06 11:59 UTC. Time now 2018-Apr-24 21:14 UTC.
Position N 33°16' E 131°58'.
Warning: this ship's position is 18 days out of date.

Length 230 m; draft 7.7 m.

Type: Cargo ship. MMSI: 636014462.

Date/timePositionNaut miles runAvg speedWind from/ knotsBaromVisibWave heightAir tempDewpointWater temp
2018-Apr-06 11:59N 33°16' E 131°58'3 7.2
2018-Apr-06 11:30N 33°20' E 131°58'611.5
2018-Apr-06 10:59N 33°25' E 132°02'713.3
2018-Apr-06 10:26N 33°29' E 132°09'713.5
2018-Apr-06 09:53N 33°34' E 132°15'513.6
2018-Apr-06 09:29N 33°38' E 132°20'713.9
2018-Apr-06 08:59N 33°43' E 132°26'714.3
2018-Apr-06 08:30N 33°48' E 132°32'714.5
2018-Apr-06 08:00N 33°54' E 132°37'714.5
2018-Apr-06 07:30N 33°58' E 132°43'1612.7
2018-Apr-06 06:16N 34°10' E 132°57'  
2018-Apr-01 23:55N 34°26' E 134°09'1111.1
2018-Apr-01 22:58N 34°25' E 134°22'510.6
2018-Apr-01 22:30N 34°27' E 134°27'611.4
2018-Apr-01 22:00N 34°29' E 134°33'612.0
2018-Apr-01 21:30N 34°31' E 134°40'613.0
2018-Apr-01 21:01N 34°33' E 134°48'612.8
2018-Apr-01 20:31N 34°36' E 134°55'510.8
2018-Apr-01 20:00N 34°37' E 135°01'4 8.6
2018-Apr-01 19:30N 34°35' E 135°06'3 6.0
2018-Apr-01 19:00N 34°33' E 135°08'5 9.8
2018-Apr-01 18:30N 34°28' E 135°05'612.2
2018-Apr-01 18:00N 34°23' E 135°02'611.7
2018-Apr-01 17:30N 34°17' E 134°59'510.9
2018-Apr-01 17:00N 34°12' E 134°59'5 9.5
2018-Apr-01 16:30N 34°07' E 134°60'611.3
2018-Apr-01 16:00N 34°01' E 134°59'611.6
2018-Apr-01 15:30N 33°56' E 134°59'611.4
2018-Apr-01 15:00N 33°50' E 135°01'611.4
2018-Apr-01 14:30N 33°45' E 135°03'611.6
2018-Apr-01 14:00N 33°39' E 135°05'711.4
2018-Apr-01 13:26N 33°33' E 135°08'611.5
2018-Apr-01 12:55N 33°27' E 135°10'  
Track history (hours):
 
Tides and Currents Weather Stations Pressure Air Temp Water Temp Dewpoint Dewpoint Depression Visibility Wind Speed Wind Dir Waves Ship Positions

Michalis L

Last reported at 2018-Apr-06 11:59 UTC. Time now 2018-Apr-24 21:14 UTC.
Position N 33°16' E 131°58'.
Warning: this ship's position is 18 days out of date.

Length 230 m; draft 7.7 m.

Type: Cargo ship. MMSI: 636014462.

Date/timePositionNaut miles runAvg speedWind from/ knotsBaromVisibWave heightAir tempDewpointWater temp
2018-Apr-06 11:59N 33°16' E 131°58'3 7.2
2018-Apr-06 11:30N 33°20' E 131°58'611.5
2018-Apr-06 10:59N 33°25' E 132°02'713.3
2018-Apr-06 10:26N 33°29' E 132°09'713.5
2018-Apr-06 09:53N 33°34' E 132°15'513.6
2018-Apr-06 09:29N 33°38' E 132°20'713.9
2018-Apr-06 08:59N 33°43' E 132°26'714.3
2018-Apr-06 08:30N 33°48' E 132°32'714.5
2018-Apr-06 08:00N 33°54' E 132°37'714.5
2018-Apr-06 07:30N 33°58' E 132°43'1612.7
2018-Apr-06 06:16N 34°10' E 132°57'  
2018-Apr-01 23:55N 34°26' E 134°09'1111.1
2018-Apr-01 22:58N 34°25' E 134°22'510.6
2018-Apr-01 22:30N 34°27' E 134°27'611.4
2018-Apr-01 22:00N 34°29' E 134°33'612.0
2018-Apr-01 21:30N 34°31' E 134°40'613.0
2018-Apr-01 21:01N 34°33' E 134°48'612.8
2018-Apr-01 20:31N 34°36' E 134°55'510.8
2018-Apr-01 20:00N 34°37' E 135°01'4 8.6
2018-Apr-01 19:30N 34°35' E 135°06'3 6.0
2018-Apr-01 19:00N 34°33' E 135°08'5 9.8
2018-Apr-01 18:30N 34°28' E 135°05'612.2
2018-Apr-01 18:00N 34°23' E 135°02'611.7
2018-Apr-01 17:30N 34°17' E 134°59'510.9
2018-Apr-01 17:00N 34°12' E 134°59'5 9.5
2018-Apr-01 16:30N 34°07' E 134°60'611.3
2018-Apr-01 16:00N 34°01' E 134°59'611.6
2018-Apr-01 15:30N 33°56' E 134°59'611.4
2018-Apr-01 15:00N 33°50' E 135°01'611.4
2018-Apr-01 14:30N 33°45' E 135°03'611.6
2018-Apr-01 14:00N 33°39' E 135°05'711.4
2018-Apr-01 13:26N 33°33' E 135°08'611.5
2018-Apr-01 12:55N 33°27' E 135°10'  

Dump ship's entire track history